Time;durP1;ratioP1;P1;durP2;ratioP2;P2;SDS_P1;SDS_P2;PMS_P1;PMS_P2;Temp;Humidity;BMP_temperature;BMP_pressure;BME280_temperature;BME280_humidity;BME280_pressure;Samples;Min_cycle;Max_cycle;Signal;HPM_P1;HPM_P2
2022/03/20 00:01:02;;;;;;;15.95;2.78;;;;;;;;;;5002314;28;20034;-46
2022/03/20 00:03:30;;;;;;;16.42;3.63;;;;;;;;;;4988062;28;20034;-42
2022/03/20 00:05:57;;;;;;;18.45;5.65;;;;;;;;;;5005822;28;20068;-45
2022/03/20 00:08:24;;;;;;;22.60;7.22;;;;;;;;;;5001250;28;20120;-42
2022/03/20 00:10:52;;;;;;;26.48;7.78;;;;;;;;;;5003032;28;20037;-44
2022/03/20 00:13:21;;;;;;;22.00;6.95;;;;;;;;;;5002137;28;20964;-44
2022/03/20 00:15:49;;;;;;;22.83;7.88;;;;;;;;;;5003605;28;20022;-42
2022/03/20 00:18:26;;;;;;;22.75;6.47;;;;;;;;;;5001993;28;20030;-43
2022/03/20 00:21:00;;;;;;;20.30;6.60;;;;;;;;;;5008885;28;20058;-43
2022/03/20 00:23:28;;;;;;;18.33;6.75;;;;;;;;;;4993151;28;20050;-43
2022/03/20 00:25:55;;;;;;;19.85;7.30;;;;;;;;;;4992748;28;20023;-46
2022/03/20 00:28:23;;;;;;;21.30;7.05;;;;;;;;;;5001147;28;20053;-43
2022/03/20 00:30:51;;;;;;;16.35;6.70;;;;;;;;;;4998131;28;20047;-42
2022/03/20 00:33:18;;;;;;;19.42;6.38;;;;;;;;;;4993289;28;20089;-44
2022/03/20 00:35:45;;;;;;;19.08;6.05;;;;;;;;;;4993314;28;20101;-44
2022/03/20 00:38:12;;;;;;;11.55;5.28;;;;;;;;;;5006962;28;20030;-43
2022/03/20 00:40:39;;;;;;;19.63;5.65;;;;;;;;;;5011836;28;20492;-44
2022/03/20 00:43:07;;;;;;;18.60;5.60;;;;;;;;;;5011992;28;20030;-42
2022/03/20 00:45:34;;;;;;;20.65;5.88;;;;;;;;;;5012663;28;20096;-45
2022/03/20 00:48:01;;;;;;;18.15;6.28;;;;;;;;;;5012007;28;20030;-45
2022/03/20 00:50:29;;;;;;;28.48;7.85;;;;;;;;;;5011534;28;20495;-43
2022/03/20 00:52:57;;;;;;;30.13;6.95;;;;;;;;;;5012365;28;20033;-44
2022/03/20 00:55:24;;;;;;;30.70;7.50;;;;;;;;;;5012715;28;20021;-43
2022/03/20 00:57:51;;;;;;;36.72;8.60;;;;;;;;;;5012243;28;20084;-45
2022/03/20 01:00:18;;;;;;;31.02;8.30;;;;;;;;;;4991329;28;20026;-42
2022/03/20 01:02:45;;;;;;;31.25;8.13;;;;;;;;;;5011717;28;20044;-42
2022/03/20 01:05:13;;;;;;;25.73;7.13;;;;;;;;;;5012061;28;20060;-42
2022/03/20 01:07:40;;;;;;;22.88;6.90;;;;;;;;;;5013977;28;20400;-44
2022/03/20 01:10:08;;;;;;;29.08;8.20;;;;;;;;;;5014192;28;20554;-42
2022/03/20 01:12:37;;;;;;;22.15;6.80;;;;;;;;;;4995841;28;20052;-44
2022/03/20 01:15:06;;;;;;;28.70;7.78;;;;;;;;;;5012418;28;20120;-43
2022/03/20 01:17:33;;;;;;;19.85;7.15;;;;;;;;;;5012778;28;20547;-45
2022/03/20 01:20:00;;;;;;;26.95;7.60;;;;;;;;;;5011811;28;20026;-43
2022/03/20 01:22:27;;;;;;;22.15;6.85;;;;;;;;;;5012936;28;20036;-42
2022/03/20 01:24:54;;;;;;;26.67;7.40;;;;;;;;;;5012090;28;20032;-45
2022/03/20 01:27:21;;;;;;;30.30;7.65;;;;;;;;;;5020873;28;20076;-43
2022/03/20 01:29:48;;;;;;;27.00;6.95;;;;;;;;;;5031990;28;20033;-44
2022/03/20 01:32:16;;;;;;;22.30;6.90;;;;;;;;;;5013364;28;20440;-45
2022/03/20 01:34:44;;;;;;;24.75;6.57;;;;;;;;;;5030898;28;20068;-45
2022/03/20 01:37:11;;;;;;;26.02;6.70;;;;;;;;;;5032139;28;20041;-43
2022/03/20 01:39:38;;;;;;;21.50;6.25;;;;;;;;;;5032329;28;20061;-42
2022/03/20 01:42:08;;;;;;;28.15;7.10;;;;;;;;;;5031974;28;20029;-44
2022/03/20 01:44:36;;;;;;;26.33;6.72;;;;;;;;;;5031399;28;20045;-45
2022/03/20 01:47:03;;;;;;;21.05;6.07;;;;;;;;;;5032152;28;20026;-42
2022/03/20 01:49:31;;;;;;;23.63;6.47;;;;;;;;;;5031934;28;20029;-41
2022/03/20 01:52:14;;;;;;;18.42;6.20;;;;;;;;;;5031623;28;20087;-41
2022/03/20 01:54:50;;;;;;;19.85;5.63;;;;;;;;;;5031162;28;20395;-42
2022/03/20 01:57:21;;;;;;;19.33;5.82;;;;;;;;;;5016508;28;20037;-44
2022/03/20 01:59:49;;;;;;;21.50;5.18;;;;;;;;;;5011176;28;20029;-45
2022/03/20 02:02:16;;;;;;;21.85;6.22;;;;;;;;;;4989251;28;20026;-44
2022/03/20 02:04:43;;;;;;;22.50;5.75;;;;;;;;;;5000637;28;20057;-45
2022/03/20 02:07:10;;;;;;;18.65;6.25;;;;;;;;;;5000425;28;20809;-45
2022/03/20 02:09:38;;;;;;;14.65;5.45;;;;;;;;;;5002851;28;20109;-46
2022/03/20 02:12:05;;;;;;;16.70;5.30;;;;;;;;;;5001493;28;20065;-46
2022/03/20 02:14:36;;;;;;;19.92;5.80;;;;;;;;;;4999989;28;20057;-48
2022/03/20 02:17:03;;;;;;;25.15;6.20;;;;;;;;;;5000464;28;20022;-43
2022/03/20 02:19:33;;;;;;;18.30;5.05;;;;;;;;;;5001850;28;20484;-43
2022/03/20 02:22:00;;;;;;;20.65;5.43;;;;;;;;;;5005640;28;20108;-45
2022/03/20 02:24:36;;;;;;;18.77;5.78;;;;;;;;;;5002890;28;20465;-43
2022/03/20 02:27:15;;;;;;;18.70;4.82;;;;;;;;;;5001543;28;20551;-43
2022/03/20 02:29:43;;;;;;;16.00;5.13;;;;;;;;;;5002166;28;20573;-45
2022/03/20 02:32:12;;;;;;;16.00;4.80;;;;;;;;;;4999701;28;20052;-44
2022/03/20 02:34:40;;;;;;;15.80;5.05;;;;;;;;;;5001242;28;20112;-46
2022/03/20 02:37:08;;;;;;;17.00;5.22;;;;;;;;;;5007216;28;20030;-47
2022/03/20 02:39:35;;;;;;;15.57;4.70;;;;;;;;;;4991657;28;20038;-44
2022/03/20 02:42:06;;;;;;;14.77;4.40;;;;;;;;;;4992218;28;20045;-46
2022/03/20 02:44:49;;;;;;;17.35;4.40;;;;;;;;;;5007897;28;20018;-44
2022/03/20 02:47:23;;;;;;;13.55;4.00;;;;;;;;;;5002845;28;20022;-44
2022/03/20 02:49:54;;;;;;;13.63;4.85;;;;;;;;;;5001143;28;20532;-42
2022/03/20 02:52:24;;;;;;;12.73;3.77;;;;;;;;;;4992239;28;20121;-43
2022/03/20 02:54:52;;;;;;;14.80;4.30;;;;;;;;;;4994903;28;20037;-42
2022/03/20 02:57:19;;;;;;;12.13;3.90;;;;;;;;;;4978895;28;20088;-43
2022/03/20 02:59:46;;;;;;;13.88;4.50;;;;;;;;;;4994245;28;20022;-42
2022/03/20 03:02:13;;;;;;;13.07;4.00;;;;;;;;;;5012408;28;20061;-47
2022/03/20 03:04:43;;;;;;;16.75;3.80;;;;;;;;;;5011016;28;20018;-49
2022/03/20 03:07:10;;;;;;;12.35;3.20;;;;;;;;;;5005433;28;20041;-50
2022/03/20 03:12:22;;;;;;;12.10;3.20;;;;;;;;;;5006659;28;20065;-47
2022/03/20 03:17:36;;;;;;;11.95;2.92;;;;;;;;;;4995653;28;20048;-45
2022/03/20 03:20:03;;;;;;;9.52;3.15;;;;;;;;;;4994969;28;20026;-45
2022/03/20 03:22:30;;;;;;;12.77;2.70;;;;;;;;;;4995172;28;20499;-47
2022/03/20 03:24:57;;;;;;;9.15;2.60;;;;;;;;;;4995013;28;20033;-46
2022/03/20 03:27:24;;;;;;;11.80;2.92;;;;;;;;;;4994651;28;20511;-47
2022/03/20 03:29:51;;;;;;;11.70;2.70;;;;;;;;;;4995668;28;20030;-47
2022/03/20 03:32:18;;;;;;;8.23;2.60;;;;;;;;;;4994524;28;20110;-51
2022/03/20 03:37:32;;;;;;;13.45;2.45;;;;;;;;;;5000081;28;20056;-44
2022/03/20 03:40:00;;;;;;;15.90;3.05;;;;;;;;;;5014940;28;20045;-48
2022/03/20 03:42:28;;;;;;;9.05;2.40;;;;;;;;;;5014753;28;20400;-44
2022/03/20 03:44:55;;;;;;;10.90;2.40;;;;;;;;;;5014469;28;20038;-45
2022/03/20 03:47:24;;;;;;;11.23;2.63;;;;;;;;;;5014956;28;20028;-51
2022/03/20 03:49:51;;;;;;;8.48;2.90;;;;;;;;;;5014633;28;20037;-47
2022/03/20 03:52:19;;;;;;;8.13;2.45;;;;;;;;;;5013818;28;20026;-45
2022/03/20 03:54:46;;;;;;;11.25;2.20;;;;;;;;;;5014538;28;20065;-45
2022/03/20 03:57:13;;;;;;;8.20;2.03;;;;;;;;;;5014394;28;20148;-44
2022/03/20 03:59:40;;;;;;;9.88;2.92;;;;;;;;;;5014041;28;20034;-47
2022/03/20 04:02:07;;;;;;;8.55;2.15;;;;;;;;;;5014537;28;20034;-50
2022/03/20 04:04:34;;;;;;;9.30;2.20;;;;;;;;;;5012847;28;20034;-46
2022/03/20 04:07:01;;;;;;;7.80;1.95;;;;;;;;;;5014223;28;20026;-48
2022/03/20 04:09:28;;;;;;;9.20;2.10;;;;;;;;;;5013911;28;20038;-44
2022/03/20 04:11:55;;;;;;;9.07;2.30;;;;;;;;;;5013958;28;20069;-47
2022/03/20 04:14:22;;;;;;;8.63;2.20;;;;;;;;;;5013936;28;20080;-47
2022/03/20 04:16:49;;;;;;;10.43;2.40;;;;;;;;;;5013629;28;20025;-48
2022/03/20 04:19:16;;;;;;;8.68;1.88;;;;;;;;;;5013724;28;20492;-48
2022/03/20 04:21:43;;;;;;;7.32;2.13;;;;;;;;;;5014454;28;20384;-47
2022/03/20 04:24:10;;;;;;;8.27;2.05;;;;;;;;;;5013284;28;20022;-46
2022/03/20 04:26:37;;;;;;;9.77;2.42;;;;;;;;;;5014432;28;20026;-47
2022/03/20 04:29:04;;;;;;;9.88;2.00;;;;;;;;;;5013249;28;20538;-44
2022/03/20 04:31:31;;;;;;;8.65;1.95;;;;;;;;;;5014070;28;20404;-49
2022/03/20 04:33:58;;;;;;;5.95;1.63;;;;;;;;;;5013891;28;20057;-49
2022/03/20 04:36:27;;;;;;;6.05;1.70;;;;;;;;;;5013085;28;20114;-46
2022/03/20 04:38:55;;;;;;;6.30;1.40;;;;;;;;;;5013780;28;20033;-46
2022/03/20 04:41:22;;;;;;;6.45;2.05;;;;;;;;;;5012991;28;20030;-48
2022/03/20 04:43:50;;;;;;;6.40;1.67;;;;;;;;;;5014008;28;20091;-47
2022/03/20 04:46:18;;;;;;;10.93;1.65;;;;;;;;;;5013871;28;20499;-48
2022/03/20 04:59:47;;;;;;;7.72;1.95;;;;;;;;;;5013688;28;20116;-50
2022/03/20 05:02:14;;;;;;;4.47;1.63;;;;;;;;;;5013180;28;20112;-48
2022/03/20 05:04:41;;;;;;;8.68;1.92;;;;;;;;;;5013394;28;20033;-51
2022/03/20 05:07:08;;;;;;;6.35;1.85;;;;;;;;;;5012482;28;20064;-46
2022/03/20 05:15:09;;;;;;;4.88;1.58;;;;;;;;;;5013057;28;20053;-49
2022/03/20 05:17:37;;;;;;;5.40;1.70;;;;;;;;;;5012612;28;20033;-45
2022/03/20 05:20:04;;;;;;;5.07;1.58;;;;;;;;;;5013170;28;20110;-49
2022/03/20 05:22:32;;;;;;;4.90;1.42;;;;;;;;;;5012772;28;20022;-49
2022/03/20 05:25:00;;;;;;;4.63;1.20;;;;;;;;;;5012348;28;20392;-47
2022/03/20 05:27:27;;;;;;;4.25;1.20;;;;;;;;;;5013083;28;20538;-47
2022/03/20 05:29:54;;;;;;;7.63;1.48;;;;;;;;;;5013024;28;20029;-44
2022/03/20 05:32:22;;;;;;;2.97;1.10;;;;;;;;;;5011951;28;20074;-46
2022/03/20 05:34:49;;;;;;;8.68;1.33;;;;;;;;;;5012324;28;20046;-47
2022/03/20 05:37:17;;;;;;;5.78;1.70;;;;;;;;;;5013496;28;20034;-44
2022/03/20 05:39:45;;;;;;;4.00;1.50;;;;;;;;;;5014355;28;20377;-45
2022/03/20 05:42:14;;;;;;;5.70;0.90;;;;;;;;;;5013225;28;20038;-48
2022/03/20 05:44:44;;;;;;;2.90;1.00;;;;;;;;;;5012839;28;20041;-46
2022/03/20 05:47:11;;;;;;;4.28;1.30;;;;;;;;;;5013234;28;20041;-44
2022/03/20 05:49:39;;;;;;;4.78;1.10;;;;;;;;;;5012238;28;20091;-46
2022/03/20 05:52:06;;;;;;;3.55;1.13;;;;;;;;;;5012896;28;20046;-47
2022/03/20 05:54:33;;;;;;;4.82;1.30;;;;;;;;;;5012407;28;20037;-46
2022/03/20 05:59:45;;;;;;;3.88;1.20;;;;;;;;;;5012496;28;20053;-49
2022/03/20 06:02:12;;;;;;;5.32;1.10;;;;;;;;;;5012029;28;20038;-48
2022/03/20 06:04:39;;;;;;;4.18;1.20;;;;;;;;;;5012982;28;20484;-44
2022/03/20 06:07:08;;;;;;;2.90;1.20;;;;;;;;;;5012380;28;20120;-45
2022/03/20 06:09:37;;;;;;;5.65;1.50;;;;;;;;;;5012186;28;20042;-49
2022/03/20 06:12:04;;;;;;;2.92;1.05;;;;;;;;;;5012704;28;20033;-45
2022/03/20 06:14:32;;;;;;;8.63;1.38;;;;;;;;;;5011824;28;20113;-49
2022/03/20 06:17:00;;;;;;;5.00;1.25;;;;;;;;;;5012613;28;20116;-48
2022/03/20 06:19:27;;;;;;;5.15;1.35;;;;;;;;;;5012164;28;20528;-47
2022/03/20 06:21:53;;;;;;;4.32;1.00;;;;;;;;;;5012143;28;20026;-46
2022/03/20 06:24:20;;;;;;;5.85;1.20;;;;;;;;;;5011854;28;20021;-46
2022/03/20 06:26:47;;;;;;;3.97;1.25;;;;;;;;;;5012659;28;20071;-46
2022/03/20 06:29:15;;;;;;;2.63;1.00;;;;;;;;;;5011548;28;20120;-45
2022/03/20 06:31:42;;;;;;;3.90;1.38;;;;;;;;;;5152973;23;20220;-48
2022/03/20 06:34:09;;;;;;;3.85;1.13;;;;;;;;;;5010682;28;20060;-45
2022/03/20 06:36:36;;;;;;;6.53;1.30;;;;;;;;;;5011263;28;20037;-44
2022/03/20 06:39:03;;;;;;;3.92;1.05;;;;;;;;;;5011858;28;20506;-45
2022/03/20 06:41:30;;;;;;;2.65;0.90;;;;;;;;;;5011873;28;20120;-47
2022/03/20 06:43:57;;;;;;;6.15;1.23;;;;;;;;;;5012118;28;20117;-44
2022/03/20 06:46:27;;;;;;;4.22;1.08;;;;;;;;;;5011795;28;20034;-46
2022/03/20 06:48:54;;;;;;;2.30;0.80;;;;;;;;;;5011177;28;20041;-47
2022/03/20 06:51:22;;;;;;;3.92;1.13;;;;;;;;;;5012054;28;20502;-44
2022/03/20 06:53:49;;;;;;;3.05;1.02;;;;;;;;;;5011531;28;20026;-44
2022/03/20 06:56:16;;;;;;;3.58;0.80;;;;;;;;;;5012371;28;20101;-44
2022/03/20 06:58:44;;;;;;;4.03;1.20;;;;;;;;;;5011291;28;20109;-44
2022/03/20 07:01:10;;;;;;;3.25;0.90;;;;;;;;;;5012027;28;20538;-45
2022/03/20 07:03:39;;;;;;;3.58;1.17;;;;;;;;;;5011371;28;20034;-44
2022/03/20 07:06:06;;;;;;;5.57;1.25;;;;;;;;;;5012157;28;20088;-44
2022/03/20 07:08:32;;;;;;;3.58;0.90;;;;;;;;;;5011216;28;20030;-45
2022/03/20 07:10:59;;;;;;;2.80;0.90;;;;;;;;;;5012218;28;20117;-44
2022/03/20 07:16:14;;;;;;;2.22;0.85;;;;;;;;;;5011544;28;20095;-44
2022/03/20 07:18:42;;;;;;;4.88;0.80;;;;;;;;;;5011724;28;20030;-45
2022/03/20 07:21:09;;;;;;;4.68;0.95;;;;;;;;;;5010575;28;20121;-48
2022/03/20 07:23:37;;;;;;;2.55;0.85;;;;;;;;;;5011921;28;20030;-46
2022/03/20 07:31:34;;;;;;;4.15;1.00;;;;;;;;;;5010867;28;20104;-46
2022/03/20 07:34:02;;;;;;;3.13;0.95;;;;;;;;;;5011461;28;20556;-44
2022/03/20 07:36:29;;;;;;;3.55;1.15;;;;;;;;;;5010839;28;20483;-47
2022/03/20 07:38:56;;;;;;;3.05;0.90;;;;;;;;;;5011894;28;20029;-44
2022/03/20 07:41:23;;;;;;;3.45;0.98;;;;;;;;;;5014625;28;20511;-47
2022/03/20 07:43:50;;;;;;;2.17;0.77;;;;;;;;;;5015458;28;20041;-44
2022/03/20 07:46:17;;;;;;;4.30;0.80;;;;;;;;;;4997174;28;20057;-47
2022/03/20 07:48:44;;;;;;;2.60;1.05;;;;;;;;;;5014891;28;20536;-45
2022/03/20 07:51:12;;;;;;;2.55;0.95;;;;;;;;;;5015064;28;20028;-45
2022/03/20 07:53:38;;;;;;;3.20;0.80;;;;;;;;;;5015250;28;20515;-45
2022/03/20 07:56:05;;;;;;;3.70;1.05;;;;;;;;;;5014444;28;20034;-44
2022/03/20 07:58:32;;;;;;;2.08;0.75;;;;;;;;;;5014484;28;20540;-44
2022/03/20 08:00:59;;;;;;;4.10;0.80;;;;;;;;;;5014963;28;20022;-45
2022/03/20 08:03:26;;;;;;;4.15;0.73;;;;;;;;;;5014987;28;20477;-44
2022/03/20 08:05:53;;;;;;;4.82;0.82;;;;;;;;;;5014236;28;20124;-46
2022/03/20 08:08:21;;;;;;;2.28;1.00;;;;;;;;;;5015077;28;20500;-44
2022/03/20 08:10:48;;;;;;;2.95;0.90;;;;;;;;;;5013804;28;20038;-46
2022/03/20 08:13:15;;;;;;;2.88;0.80;;;;;;;;;;5014803;28;20744;-47
2022/03/20 08:15:43;;;;;;;4.72;1.10;;;;;;;;;;5014268;28;20026;-44
2022/03/20 08:18:10;;;;;;;4.78;1.00;;;;;;;;;;5014016;28;20037;-45
2022/03/20 08:20:39;;;;;;;3.08;0.90;;;;;;;;;;5014315;28;20037;-45
2022/03/20 08:23:06;;;;;;;3.33;0.80;;;;;;;;;;5014664;28;20112;-44
2022/03/20 08:25:33;;;;;;;4.30;0.70;;;;;;;;;;5014152;28;20038;-44
2022/03/20 08:28:02;;;;;;;2.50;1.05;;;;;;;;;;5014269;28;20038;-44
2022/03/20 08:30:29;;;;;;;2.35;0.77;;;;;;;;;;5014552;28;20084;-45
2022/03/20 08:32:57;;;;;;;5.18;0.90;;;;;;;;;;5014009;28;20080;-45
2022/03/20 08:35:25;;;;;;;1.45;0.60;;;;;;;;;;5013950;28;20030;-47
2022/03/20 08:37:55;;;;;;;2.10;0.80;;;;;;;;;;5013987;28;20022;-44
2022/03/20 08:40:24;;;;;;;5.78;0.98;;;;;;;;;;5013841;28;20480;-47
2022/03/20 08:42:55;;;;;;;2.53;0.73;;;;;;;;;;5013786;28;20072;-44
2022/03/20 08:45:22;;;;;;;2.97;0.93;;;;;;;;;;5013291;28;20030;-44
2022/03/20 08:47:50;;;;;;;2.47;0.57;;;;;;;;;;5014284;28;20026;-45
2022/03/20 08:50:19;;;;;;;3.60;0.40;;;;;;;;;;5014160;28;20060;-45
2022/03/20 08:52:46;;;;;;;3.47;0.70;;;;;;;;;;5012358;28;20069;-45
2022/03/20 08:55:14;;;;;;;2.28;0.60;;;;;;;;;;5014497;28;20482;-44
2022/03/20 08:57:54;;;;;;;2.40;0.60;;;;;;;;;;5013116;28;20097;-45
2022/03/20 09:00:24;;;;;;;1.90;0.88;;;;;;;;;;5013812;28;20032;-44
2022/03/20 09:02:51;;;;;;;2.83;0.65;;;;;;;;;;5013285;28;20034;-44
2022/03/20 09:05:19;;;;;;;2.67;0.80;;;;;;;;;;5013732;28;20176;-44
2022/03/20 09:07:47;;;;;;;3.60;0.90;;;;;;;;;;5013273;28;20030;-45
2022/03/20 09:10:15;;;;;;;9.90;0.98;;;;;;;;;;4996342;28;20427;-46
2022/03/20 09:12:45;;;;;;;3.08;0.68;;;;;;;;;;5012907;28;20069;-45
2022/03/20 09:15:16;;;;;;;5.28;0.70;;;;;;;;;;5013866;28;20053;-44
2022/03/20 09:20:33;;;;;;;2.65;0.70;;;;;;;;;;5013552;28;20487;-44
2022/03/20 09:23:00;;;;;;;3.60;0.70;;;;;;;;;;5013422;28;20387;-45
2022/03/20 09:25:27;;;;;;;1.95;0.60;;;;;;;;;;5013082;28;20117;-44
2022/03/20 09:27:54;;;;;;;3.38;0.80;;;;;;;;;;5013143;28;20088;-45
2022/03/20 09:30:22;;;;;;;3.30;0.75;;;;;;;;;;5012924;28;20018;-44
2022/03/20 09:32:49;;;;;;;2.25;0.55;;;;;;;;;;5012589;28;20108;-46
2022/03/20 09:35:16;;;;;;;5.03;1.17;;;;;;;;;;5013356;28;20423;-47
2022/03/20 09:37:44;;;;;;;1.92;0.70;;;;;;;;;;5012259;28;20514;-47
2022/03/20 09:40:12;;;;;;;3.20;0.75;;;;;;;;;;5013462;28;20029;-44
2022/03/20 09:42:39;;;;;;;3.17;0.80;;;;;;;;;;5012875;28;20115;-45
2022/03/20 09:45:09;;;;;;;3.25;0.80;;;;;;;;;;5012696;28;20403;-44
2022/03/20 09:47:39;;;;;;;2.40;0.80;;;;;;;;;;5012387;28;20496;-46
2022/03/20 09:50:06;;;;;;;1.83;0.60;;;;;;;;;;4995326;28;20048;-44
2022/03/20 09:52:34;;;;;;;3.10;0.75;;;;;;;;;;5012294;28;20117;-45
2022/03/20 09:55:01;;;;;;;3.13;1.10;;;;;;;;;;5012873;28;20038;-50
2022/03/20 09:57:29;;;;;;;3.42;1.05;;;;;;;;;;5012247;28;20033;-44
2022/03/20 09:59:57;;;;;;;2.67;0.88;;;;;;;;;;5012044;28;20111;-44
2022/03/20 10:02:30;;;;;;;2.83;1.15;;;;;;;;;;5012322;28;20037;-47
2022/03/20 10:05:01;;;;;;;4.05;1.00;;;;;;;;;;4994324;28;20037;-45
2022/03/20 10:07:29;;;;;;;3.63;0.98;;;;;;;;;;5012682;28;20038;-46
2022/03/20 10:10:09;;;;;;;3.80;1.17;;;;;;;;;;5012634;28;20476;-45
2022/03/20 10:12:37;;;;;;;5.45;1.10;;;;;;;;;;5011780;28;20042;-45
2022/03/20 10:15:05;;;;;;;5.90;0.82;;;;;;;;;;5012356;28;20030;-46
2022/03/20 10:17:32;;;;;;;2.20;0.80;;;;;;;;;;5012222;28;20088;-45
2022/03/20 10:20:20;;;;;;;4.10;1.00;;;;;;;;;;5012777;28;20483;-45
2022/03/20 10:22:47;;;;;;;2.15;0.90;;;;;;;;;;5012129;28;20030;-45
2022/03/20 10:25:20;;;;;;;1.92;0.90;;;;;;;;;;5011941;28;20075;-45
2022/03/20 10:27:58;;;;;;;4.03;0.80;;;;;;;;;;5012290;28;20072;-47
2022/03/20 10:30:25;;;;;;;3.70;0.82;;;;;;;;;;5012288;28;20041;-46
2022/03/20 10:32:52;;;;;;;2.17;0.77;;;;;;;;;;5011365;28;20050;-45
2022/03/20 10:35:19;;;;;;;2.83;0.80;;;;;;;;;;5011688;28;20083;-44
2022/03/20 10:37:46;;;;;;;3.08;0.93;;;;;;;;;;5011984;28;20045;-46
2022/03/20 10:40:18;;;;;;;2.05;0.77;;;;;;;;;;5012201;28;20100;-44
2022/03/20 10:43:08;;;;;;;3.75;0.75;;;;;;;;;;5011738;28;20030;-45
2022/03/20 10:45:51;;;;;;;3.47;0.90;;;;;;;;;;5012536;28;20030;-45
2022/03/20 10:48:25;;;;;;;2.42;0.90;;;;;;;;;;4993916;28;20049;-46
2022/03/20 10:50:52;;;;;;;2.83;0.73;;;;;;;;;;5012422;28;20045;-44
2022/03/20 10:53:19;;;;;;;5.40;1.08;;;;;;;;;;4994002;28;20037;-44
2022/03/20 10:55:46;;;;;;;2.63;1.08;;;;;;;;;;5012376;28;20034;-44
2022/03/20 10:58:26;;;;;;;3.20;0.90;;;;;;;;;;5011631;28;20377;-44
2022/03/20 11:00:53;;;;;;;2.03;0.73;;;;;;;;;;5012086;28;20030;-44
2022/03/20 11:03:22;;;;;;;2.10;0.80;;;;;;;;;;5012275;28;20037;-47
2022/03/20 11:05:50;;;;;;;4.80;0.95;;;;;;;;;;5011103;28;20395;-47
2022/03/20 11:08:19;;;;;;;2.33;0.88;;;;;;;;;;5012135;28;20033;-46
2022/03/20 11:10:50;;;;;;;1.77;0.80;;;;;;;;;;5011090;28;20488;-46
2022/03/20 11:13:17;;;;;;;4.30;1.00;;;;;;;;;;5012019;28;20503;-44
2022/03/20 11:15:45;;;;;;;2.67;0.70;;;;;;;;;;5014607;28;20029;-44
2022/03/20 11:18:15;;;;;;;3.22;0.75;;;;;;;;;;5015686;28;20037;-44
2022/03/20 11:20:46;;;;;;;4.57;1.00;;;;;;;;;;5015265;28;20088;-45
2022/03/20 11:23:14;;;;;;;3.20;0.60;;;;;;;;;;5015861;28;20030;-45
2022/03/20 11:25:45;;;;;;;3.50;0.68;;;;;;;;;;5015327;28;20501;-44
2022/03/20 11:28:12;;;;;;;3.13;0.70;;;;;;;;;;5015462;28;20121;-44
2022/03/20 11:30:40;;;;;;;2.13;0.77;;;;;;;;;;5015325;28;20506;-47
2022/03/20 11:33:09;;;;;;;2.42;0.82;;;;;;;;;;5015017;28;20084;-45
2022/03/20 11:35:37;;;;;;;2.78;0.90;;;;;;;;;;5015360;28;20034;-46
2022/03/20 11:38:20;;;;;;;3.88;0.80;;;;;;;;;;5015452;28;20037;-45
2022/03/20 11:41:07;;;;;;;4.38;0.95;;;;;;;;;;5014759;28;20388;-47
2022/03/20 11:43:35;;;;;;;3.03;0.85;;;;;;;;;;5014878;28;20037;-45
2022/03/20 11:46:34;;;;;;;3.30;0.77;;;;;;;;;;5002132;28;20027;-44
2022/03/20 11:49:17;;;;;;;3.40;0.82;;;;;;;;;;5002746;28;20030;-45
2022/03/20 11:51:54;;;;;;;2.97;0.80;;;;;;;;;;5004058;28;20084;-45
2022/03/20 11:54:22;;;;;;;3.50;0.70;;;;;;;;;;5004159;28;20049;-45
2022/03/20 11:56:49;;;;;;;2.88;0.88;;;;;;;;;;4991359;28;20369;-48
2022/03/20 11:59:36;;;;;;;2.85;0.90;;;;;;;;;;4995689;28;20089;-45
2022/03/20 12:02:03;;;;;;;4.95;0.73;;;;;;;;;;4978264;28;20076;-47
2022/03/20 12:04:38;;;;;;;1.83;0.82;;;;;;;;;;5015082;28;20499;-44
2022/03/20 12:07:28;;;;;;;4.15;0.90;;;;;;;;;;5014391;28;20045;-44
2022/03/20 12:09:57;;;;;;;3.55;1.05;;;;;;;;;;5014892;28;20034;-44
2022/03/20 12:12:33;;;;;;;4.43;0.85;;;;;;;;;;5014308;28;20061;-44
2022/03/20 12:15:07;;;;;;;6.85;1.13;;;;;;;;;;5008223;28;20037;-45
2022/03/20 12:17:52;;;;;;;4.10;1.10;;;;;;;;;;5006726;28;20038;-45
2022/03/20 12:20:37;;;;;;;4.43;0.90;;;;;;;;;;5010338;28;20049;-47
2022/03/20 12:23:22;;;;;;;2.13;0.70;;;;;;;;;;4994152;28;20169;-48
2022/03/20 12:25:49;;;;;;;4.00;0.95;;;;;;;;;;4998654;28;20042;-46
2022/03/20 12:28:29;;;;;;;5.07;1.23;;;;;;;;;;4997011;28;20037;-47
2022/03/20 12:30:56;;;;;;;3.30;0.95;;;;;;;;;;4993115;28;20026;-44
2022/03/20 12:33:24;;;;;;;6.35;1.20;;;;;;;;;;4994560;28;20799;-46
2022/03/20 12:35:52;;;;;;;5.10;0.80;;;;;;;;;;4994233;28;20097;-45
2022/03/20 12:38:37;;;;;;;5.25;0.98;;;;;;;;;;4994024;28;20037;-44
2022/03/20 12:41:23;;;;;;;5.00;0.93;;;;;;;;;;4994210;28;20053;-45
2022/03/20 12:44:03;;;;;;;4.38;0.90;;;;;;;;;;4994344;28;20184;-45
2022/03/20 12:46:30;;;;;;;5.32;1.02;;;;;;;;;;4993824;28;20078;-47
2022/03/20 12:48:57;;;;;;;5.82;0.90;;;;;;;;;;4993865;28;20069;-45
2022/03/20 12:51:32;;;;;;;8.55;1.27;;;;;;;;;;4975997;28;20038;-45
2022/03/20 12:54:04;;;;;;;5.43;0.80;;;;;;;;;;4994134;28;20076;-45
2022/03/20 12:56:32;;;;;;;6.78;1.40;;;;;;;;;;4993282;28;20532;-45
2022/03/20 12:59:00;;;;;;;7.43;1.05;;;;;;;;;;4994427;28;20031;-50
2022/03/20 13:01:36;;;;;;;9.70;1.30;;;;;;;;;;4993204;28;20045;-45
2022/03/20 13:04:14;;;;;;;5.75;1.05;;;;;;;;;;4994141;28;20057;-47
2022/03/20 13:06:41;;;;;;;7.93;1.08;;;;;;;;;;4992950;28;20089;-47
2022/03/20 13:09:15;;;;;;;5.50;1.20;;;;;;;;;;4993904;28;20041;-45
2022/03/20 13:11:51;;;;;;;6.85;1.00;;;;;;;;;;4993434;28;20038;-44
2022/03/20 13:14:18;;;;;;;8.77;1.00;;;;;;;;;;4993498;28;20161;-45
2022/03/20 13:17:04;;;;;;;9.45;1.30;;;;;;;;;;4993578;28;20030;-46
2022/03/20 13:19:35;;;;;;;11.73;1.38;;;;;;;;;;4993193;28;20046;-45
2022/03/20 13:22:06;;;;;;;7.05;0.88;;;;;;;;;;4993027;28;20030;-44
2022/03/20 13:24:51;;;;;;;10.57;1.33;;;;;;;;;;4992428;28;20034;-49
2022/03/20 13:27:19;;;;;;;12.02;1.42;;;;;;;;;;4993636;28;20503;-46
2022/03/20 13:29:53;;;;;;;6.55;1.17;;;;;;;;;;4993168;28;20038;-45
2022/03/20 13:32:21;;;;;;;16.65;1.52;;;;;;;;;;4992741;28;20572;-48
2022/03/20 13:34:48;;;;;;;8.45;1.30;;;;;;;;;;4993278;28;20030;-45
2022/03/20 13:37:17;;;;;;;8.60;1.52;;;;;;;;;;4993025;28;20026;-45
2022/03/20 13:39:50;;;;;;;9.80;1.50;;;;;;;;;;4992446;28;20386;-46
2022/03/20 13:42:19;;;;;;;13.10;1.52;;;;;;;;;;4993039;28;20023;-45
2022/03/20 13:44:47;;;;;;;11.30;1.52;;;;;;;;;;4992924;28;20034;-45
2022/03/20 13:47:15;;;;;;;10.23;1.40;;;;;;;;;;4992642;28;20066;-44
2022/03/20 13:49:43;;;;;;;11.80;1.60;;;;;;;;;;4993364;28;20409;-47
2022/03/20 13:52:17;;;;;;;9.25;1.33;;;;;;;;;;4992483;28;20042;-49
2022/03/20 13:54:59;;;;;;;10.18;1.50;;;;;;;;;;4975347;28;20049;-45
2022/03/20 13:57:28;;;;;;;6.32;1.58;;;;;;;;;;4993312;28;20042;-44
2022/03/20 13:59:56;;;;;;;9.48;1.80;;;;;;;;;;4992809;28;20041;-43
2022/03/20 14:02:24;;;;;;;20.00;1.95;;;;;;;;;;4992974;28;20025;-43
2022/03/20 14:04:57;;;;;;;16.95;2.40;;;;;;;;;;4992904;28;20042;-45
2022/03/20 14:07:24;;;;;;;11.02;1.55;;;;;;;;;;4992266;28;20045;-45
2022/03/20 14:09:53;;;;;;;15.30;1.70;;;;;;;;;;4992618;28;20028;-49
2022/03/20 14:12:27;;;;;;;11.90;1.52;;;;;;;;;;4992649;28;20066;-45
2022/03/20 14:14:55;;;;;;;13.68;1.83;;;;;;;;;;4992288;28;20035;-47
2022/03/20 14:17:41;;;;;;;12.18;1.48;;;;;;;;;;4992772;28;20108;-50
2022/03/20 14:20:09;;;;;;;19.33;2.03;;;;;;;;;;4992174;28;20045;-46
2022/03/20 14:22:46;;;;;;;15.68;2.25;;;;;;;;;;4992640;28;20439;-47
2022/03/20 14:25:30;;;;;;;21.67;2.00;;;;;;;;;;4998702;28;20041;-46
2022/03/20 14:28:01;;;;;;;17.83;2.10;;;;;;;;;;5012306;28;20033;-47
2022/03/20 14:41:34;;;;;;;40.17;2.85;;;;;;;;;;5011159;28;20052;-45
2022/03/20 14:44:09;;;;;;;40.30;3.05;;;;;;;;;;5011143;28;20044;-47
2022/03/20 14:46:39;;;;;;;34.85;3.38;;;;;;;;;;5010313;28;20084;-44
2022/03/20 14:49:07;;;;;;;50.03;3.47;;;;;;;;;;5012762;28;20042;-46
2022/03/20 14:51:34;;;;;;;46.75;3.97;;;;;;;;;;5017260;28;20034;-46
2022/03/20 14:54:02;;;;;;;33.55;3.08;;;;;;;;;;5018024;28;20030;-44
2022/03/20 14:56:29;;;;;;;28.85;3.30;;;;;;;;;;5017573;28;20034;-45
2022/03/20 14:58:58;;;;;;;39.28;3.65;;;;;;;;;;5017863;28;20119;-49
2022/03/20 15:01:25;;;;;;;31.58;3.25;;;;;;;;;;5017222;28;20034;-46
2022/03/20 15:03:53;;;;;;;34.50;4.45;;;;;;;;;;5016960;28;20480;-49
2022/03/20 15:06:22;;;;;;;38.03;3.22;;;;;;;;;;5016753;28;20069;-45
2022/03/20 15:11:35;;;;;;;28.85;3.42;;;;;;;;;;5017382;28;20048;-47
2022/03/20 15:14:03;;;;;;;34.15;3.38;;;;;;;;;;5015989;28;20034;-44
2022/03/20 15:16:30;;;;;;;28.80;3.58;;;;;;;;;;5017657;28;20436;-47
2022/03/20 15:18:58;;;;;;;26.55;3.28;;;;;;;;;;5017119;28;20033;-47
2022/03/20 15:21:27;;;;;;;32.63;3.42;;;;;;;;;;5017008;28;20068;-50
2022/03/20 15:23:55;;;;;;;35.45;3.60;;;;;;;;;;5016949;28;20052;-53
2022/03/20 15:26:22;;;;;;;36.08;3.70;;;;;;;;;;5017068;28;20037;-51
2022/03/20 15:28:49;;;;;;;35.72;3.40;;;;;;;;;;5016666;28;20076;-53
2022/03/20 15:31:16;;;;;;;25.77;3.95;;;;;;;;;;5017279;28;20034;-48
2022/03/20 15:33:44;;;;;;;33.63;3.65;;;;;;;;;;5016600;28;20571;-48
2022/03/20 15:36:15;;;;;;;30.27;4.00;;;;;;;;;;5016816;28;20030;-49
2022/03/20 15:38:43;;;;;;;30.05;3.22;;;;;;;;;;5017421;28;20030;-46
2022/03/20 15:41:12;;;;;;;46.17;4.47;;;;;;;;;;5016450;28;20026;-48
2022/03/20 15:43:40;;;;;;;39.95;3.53;;;;;;;;;;5016976;28;20091;-50